createdAt,value
2017-09-22T00:00:58.147Z,8.65
2017-09-22T00:03:25.708Z,9.93
2017-09-22T00:05:53.531Z,8.27
2017-09-22T00:08:21.908Z,8.60
2017-09-22T00:10:50.254Z,8.88
2017-09-22T00:13:17.844Z,9.10
2017-09-22T00:15:46.185Z,8.38
2017-09-22T00:18:13.761Z,8.75
2017-09-22T00:20:41.325Z,8.93
2017-09-22T00:23:09.193Z,8.98
2017-09-22T00:25:36.747Z,8.48
2017-09-22T00:28:04.306Z,8.25
2017-09-22T00:30:31.928Z,8.65
2017-09-22T00:32:59.485Z,8.63
2017-09-22T00:35:27.057Z,8.50
2017-09-22T00:37:54.616Z,7.45
2017-09-22T00:40:22.222Z,9.00
2017-09-22T00:42:50.537Z,7.95
2017-09-22T00:45:18.428Z,9.07
2017-09-22T00:47:45.995Z,9.55
2017-09-22T00:50:13.551Z,7.00
2017-09-22T00:52:41.124Z,8.50
2017-09-22T00:55:08.693Z,7.80
2017-09-22T00:57:36.254Z,8.07
2017-09-22T01:00:04.586Z,7.45
2017-09-22T01:02:32.237Z,7.87
2017-09-22T01:04:59.805Z,8.02
2017-09-22T01:07:27.668Z,6.55
2017-09-22T01:09:55.235Z,7.87
2017-09-22T01:12:23.564Z,7.20
2017-09-22T01:14:51.976Z,8.05
2017-09-22T01:17:19.559Z,8.23
2017-09-22T01:19:47.125Z,7.80
2017-09-22T01:22:14.685Z,8.00
2017-09-22T01:24:42.283Z,7.90
2017-09-22T01:27:10.628Z,8.05
2017-09-22T01:29:38.498Z,7.70
2017-09-22T01:32:06.061Z,7.70
2017-09-22T01:34:33.616Z,7.47
2017-09-22T01:37:01.196Z,8.25
2017-09-22T01:39:29.515Z,7.60
2017-09-22T01:41:57.071Z,7.10
2017-09-22T01:44:24.618Z,7.15
2017-09-22T01:46:52.197Z,6.22
2017-09-22T01:49:19.740Z,7.47
2017-09-22T01:51:47.609Z,7.15
2017-09-22T01:54:15.176Z,7.85
2017-09-22T01:56:42.754Z,7.85
2017-09-22T01:59:10.318Z,7.53
2017-09-22T02:01:37.884Z,8.45
2017-09-22T02:04:05.506Z,7.30
2017-09-22T02:06:33.069Z,7.07
2017-09-22T02:09:01.411Z,8.40
2017-09-22T02:11:29.727Z,6.95
2017-09-22T02:13:57.290Z,7.90
2017-09-22T02:16:24.847Z,6.62
2017-09-22T02:18:53.554Z,6.93
2017-09-22T02:21:21.139Z,7.30
2017-09-22T02:23:49.463Z,7.30
2017-09-22T02:26:17.035Z,7.75
2017-09-22T02:28:45.393Z,7.60
2017-09-22T02:31:12.968Z,7.20
2017-09-22T02:33:40.528Z,8.10
2017-09-22T02:36:08.101Z,6.87
2017-09-22T02:38:35.680Z,6.35
2017-09-22T02:41:04.333Z,7.40
2017-09-22T02:43:32.066Z,6.82
2017-09-22T02:45:59.629Z,7.10
2017-09-22T02:48:27.201Z,6.93
2017-09-22T02:50:54.762Z,6.78
2017-09-22T02:53:22.327Z,6.70
2017-09-22T02:55:49.904Z,6.18
2017-09-22T02:58:17.464Z,6.75
2017-09-22T03:00:45.028Z,7.07
2017-09-22T03:03:12.593Z,6.53
2017-09-22T03:05:40.147Z,6.57
2017-09-22T03:08:07.716Z,5.82
2017-09-22T03:10:35.283Z,7.28
2017-09-22T03:13:03.926Z,6.93
2017-09-22T03:15:31.483Z,6.32
2017-09-22T03:17:59.043Z,6.35
2017-09-22T03:20:26.592Z,6.60
2017-09-22T03:22:54.174Z,6.60
2017-09-22T03:25:22.623Z,6.93
2017-09-22T03:27:50.177Z,6.80
2017-09-22T03:30:17.741Z,5.62
2017-09-22T03:32:45.304Z,6.18
2017-09-22T03:35:12.876Z,5.85
2017-09-22T03:37:40.440Z,6.35
2017-09-22T03:40:08.294Z,6.75
2017-09-22T03:42:35.848Z,6.45
2017-09-22T03:45:03.414Z,5.95
2017-09-22T03:47:30.980Z,5.70
2017-09-22T03:49:58.540Z,5.75
2017-09-22T03:52:26.110Z,6.55
2017-09-22T03:54:53.734Z,4.95
2017-09-22T03:57:21.300Z,6.28
2017-09-22T03:59:48.862Z,6.45
2017-09-22T04:02:16.706Z,6.20
2017-09-22T04:04:44.381Z,5.87
2017-09-22T04:07:12.037Z,5.55
2017-09-22T04:09:39.624Z,5.40
2017-09-22T04:12:07.186Z,5.93
2017-09-22T04:14:34.755Z,5.35
2017-09-22T04:17:02.319Z,5.70
2017-09-22T04:19:30.268Z,5.62
2017-09-22T04:21:57.818Z,5.28
2017-09-22T04:24:27.007Z,6.28
2017-09-22T04:26:54.582Z,5.95
2017-09-22T04:29:22.907Z,6.40
2017-09-22T04:31:51.244Z,7.37
2017-09-22T04:34:18.810Z,5.18
2017-09-22T04:36:47.475Z,5.25
2017-09-22T04:39:15.040Z,6.25
2017-09-22T04:41:42.599Z,6.05
2017-09-22T04:44:10.183Z,6.05
2017-09-22T04:46:37.744Z,5.93
2017-09-22T04:49:06.078Z,5.75
2017-09-22T04:51:33.633Z,5.22
2017-09-22T04:54:01.234Z,5.75
2017-09-22T04:56:28.786Z,6.75
2017-09-22T04:58:56.636Z,5.85
2017-09-22T05:01:24.957Z,6.18
2017-09-22T05:03:53.290Z,7.30
2017-09-22T05:06:20.910Z,6.25
2017-09-22T05:08:48.465Z,6.68
2017-09-22T05:11:16.039Z,6.60
2017-09-22T05:13:43.596Z,5.82
2017-09-22T05:16:11.173Z,6.20
2017-09-22T05:18:38.738Z,5.85
2017-09-22T05:21:06.324Z,6.18
2017-09-22T05:23:33.947Z,5.72
2017-09-22T05:26:01.819Z,5.55
2017-09-22T05:28:29.387Z,6.15
2017-09-22T05:30:56.954Z,5.50
2017-09-22T05:33:24.510Z,6.03
2017-09-22T05:35:52.072Z,5.95
2017-09-22T05:38:19.646Z,5.90
2017-09-22T05:40:47.983Z,5.97
2017-09-22T05:43:15.860Z,6.50
2017-09-22T05:45:43.406Z,5.37
2017-09-22T05:48:10.968Z,5.47
2017-09-22T05:50:38.558Z,6.55
2017-09-22T05:53:06.121Z,5.50
2017-09-22T05:55:33.687Z,6.07
2017-09-22T05:58:02.005Z,6.22
2017-09-22T06:00:29.882Z,5.93
2017-09-22T06:02:57.459Z,6.30
2017-09-22T06:05:25.015Z,6.00
2017-09-22T06:07:52.581Z,5.85
2017-09-22T06:10:20.143Z,6.65
2017-09-22T06:12:47.711Z,6.30
2017-09-22T06:15:15.280Z,6.62
2017-09-22T06:17:43.619Z,6.07
2017-09-22T06:20:11.178Z,6.25
2017-09-22T06:22:39.053Z,6.95
2017-09-22T06:25:06.632Z,6.57
2017-09-22T06:27:34.209Z,6.35
2017-09-22T06:30:02.536Z,5.68
2017-09-22T06:32:30.130Z,5.87
2017-09-22T06:34:57.717Z,5.80
2017-09-22T06:37:25.292Z,6.50
2017-09-22T06:39:52.862Z,6.72
2017-09-22T06:42:20.419Z,6.07
2017-09-22T06:44:47.983Z,6.20
2017-09-22T06:47:15.536Z,5.97
2017-09-22T06:49:43.423Z,5.60
2017-09-22T06:52:10.975Z,6.03
2017-09-22T06:54:38.540Z,6.80
2017-09-22T06:57:06.863Z,6.65
2017-09-22T06:59:35.195Z,6.07
2017-09-22T07:02:02.773Z,6.10
2017-09-22T07:04:30.344Z,6.18
2017-09-22T07:06:58.676Z,7.03
2017-09-22T07:09:26.233Z,6.07
2017-09-22T07:11:54.120Z,6.90
2017-09-22T07:14:21.688Z,6.37
2017-09-22T07:16:49.260Z,7.50
2017-09-22T07:19:17.608Z,6.60
2017-09-22T07:21:45.185Z,6.90
2017-09-22T07:24:12.759Z,6.45
2017-09-22T07:26:40.318Z,6.72
2017-09-22T07:29:08.681Z,6.35
2017-09-22T07:31:36.268Z,6.47
2017-09-22T07:34:04.901Z,6.35
2017-09-22T07:36:32.476Z,6.20
2017-09-22T07:39:00.819Z,5.82
2017-09-22T07:41:28.398Z,5.35
2017-09-22T07:43:56.454Z,6.12
2017-09-22T07:46:24.051Z,5.45
2017-09-22T07:48:51.614Z,6.28
2017-09-22T07:51:19.568Z,5.60
2017-09-22T07:53:47.144Z,5.68
2017-09-22T07:56:14.730Z,5.25
2017-09-22T07:58:42.301Z,7.25
2017-09-22T08:01:09.862Z,6.05
2017-09-22T08:03:38.257Z,5.43
2017-09-22T08:06:05.824Z,5.55
2017-09-22T08:08:33.694Z,5.32
2017-09-22T08:11:01.266Z,5.65
2017-09-22T08:13:28.835Z,5.12
2017-09-22T08:15:56.407Z,5.80
2017-09-22T08:18:24.738Z,5.55
2017-09-22T08:20:52.315Z,5.68
2017-09-22T08:23:19.896Z,4.78
2017-09-22T08:25:48.237Z,4.82
2017-09-22T08:28:15.811Z,4.90
2017-09-22T08:30:45.211Z,4.65
2017-09-22T08:33:12.788Z,5.07
2017-09-22T08:35:40.386Z,4.15
2017-09-22T08:38:07.982Z,4.28
2017-09-22T08:40:35.541Z,3.80
2017-09-22T08:43:03.133Z,4.00
2017-09-22T08:45:31.530Z,4.18
2017-09-22T08:47:59.387Z,3.95
2017-09-22T08:50:27.712Z,4.40
2017-09-22T08:52:55.280Z,3.58
2017-09-22T08:55:22.881Z,4.75
2017-09-22T08:57:50.477Z,4.90
2017-09-22T09:00:18.067Z,4.05
2017-09-22T09:02:45.659Z,3.97
2017-09-22T09:05:14.014Z,3.67
2017-09-22T09:07:41.588Z,3.75
2017-09-22T09:10:09.920Z,3.08
2017-09-22T09:12:37.500Z,3.83
2017-09-22T09:15:05.063Z,3.40
2017-09-22T09:17:32.652Z,3.90
2017-09-22T09:20:00.228Z,3.70
2017-09-22T09:22:27.835Z,4.03
2017-09-22T09:24:55.417Z,3.33
2017-09-22T09:27:24.060Z,3.50
2017-09-22T09:29:51.626Z,4.03
2017-09-22T09:32:19.197Z,4.32
2017-09-22T09:34:46.769Z,3.40
2017-09-22T09:37:14.349Z,3.45
2017-09-22T09:39:42.719Z,4.40
2017-09-22T09:42:11.089Z,4.57
2017-09-22T09:44:39.744Z,4.50
2017-09-22T09:47:07.369Z,4.55
2017-09-22T09:49:34.944Z,5.33
2017-09-22T09:52:02.575Z,5.60
2017-09-22T09:54:30.173Z,4.87
2017-09-22T09:56:57.759Z,4.80
2017-09-22T09:59:25.338Z,4.93
2017-09-22T10:01:53.991Z,5.30
2017-09-22T10:04:21.553Z,4.55
2017-09-22T10:06:49.115Z,4.87
2017-09-22T10:09:16.720Z,5.17
2017-09-22T10:11:44.296Z,4.70
2017-09-22T10:14:11.879Z,4.83
2017-09-22T10:16:39.457Z,5.67
2017-09-22T10:19:07.408Z,5.30
2017-09-22T10:21:34.970Z,6.30
2017-09-22T10:24:02.608Z,5.40
2017-09-22T10:26:30.182Z,5.57
2017-09-22T10:28:58.536Z,5.73
2017-09-22T10:31:26.125Z,5.70
2017-09-22T10:33:53.707Z,5.70
2017-09-22T10:36:21.648Z,5.33
2017-09-22T10:38:49.239Z,5.47
2017-09-22T10:41:16.847Z,5.40
2017-09-22T10:43:44.480Z,5.87
2017-09-22T10:46:12.798Z,6.23
2017-09-22T10:48:40.380Z,5.47
2017-09-22T10:51:07.941Z,5.50
2017-09-22T10:53:36.507Z,6.60
2017-09-22T10:56:04.095Z,6.10
2017-09-22T10:58:31.658Z,6.50
2017-09-22T11:01:00.022Z,5.93
2017-09-22T11:03:27.601Z,6.53
2017-09-22T11:05:55.960Z,6.73
2017-09-22T11:08:23.549Z,5.87
2017-09-22T11:10:52.171Z,5.70
2017-09-22T11:13:19.775Z,7.10
2017-09-22T11:15:48.204Z,6.73
2017-09-22T11:18:15.814Z,7.03
2017-09-22T11:20:44.158Z,6.90
2017-09-22T11:23:12.195Z,8.00
2017-09-22T11:25:39.768Z,8.70
2017-09-22T11:28:07.601Z,7.20
2017-09-22T11:30:35.949Z,8.50
2017-09-22T11:33:03.544Z,8.10
2017-09-22T11:35:31.140Z,7.60
2017-09-22T11:37:58.721Z,7.87
2017-09-22T11:40:26.334Z,7.70
2017-09-22T11:42:53.902Z,7.50
2017-09-22T11:45:21.479Z,8.20
2017-09-22T11:47:49.044Z,7.10
2017-09-22T11:50:17.022Z,7.27
2017-09-22T11:52:44.609Z,7.80
2017-09-22T11:55:12.959Z,12.03
2017-09-22T11:57:40.548Z,8.47
2017-09-22T12:00:08.882Z,7.40
2017-09-22T12:02:36.486Z,7.03
2017-09-22T12:05:04.814Z,6.40
2017-09-22T12:07:32.687Z,7.13
2017-09-22T12:10:00.295Z,6.90
2017-09-22T12:12:28.641Z,6.43
2017-09-22T12:14:56.263Z,6.87
2017-09-22T12:17:23.841Z,8.30
2017-09-22T12:19:51.758Z,6.77
2017-09-22T12:22:20.098Z,6.77
2017-09-22T12:24:47.687Z,6.70
2017-09-22T12:27:16.108Z,7.47
2017-09-22T12:29:43.728Z,5.73
2017-09-22T12:32:12.076Z,6.33
2017-09-22T12:34:39.662Z,6.37
2017-09-22T12:37:08.013Z,6.40
2017-09-22T12:39:35.584Z,6.60
2017-09-22T12:42:03.538Z,5.70
2017-09-22T12:44:31.163Z,5.97
2017-09-22T12:46:58.741Z,6.60
2017-09-22T12:49:26.341Z,6.57
2017-09-22T12:51:54.727Z,7.17
2017-09-22T12:54:22.313Z,6.97
2017-09-22T12:56:49.933Z,6.37
2017-09-22T12:59:17.519Z,7.03
2017-09-22T13:01:45.113Z,7.00
2017-09-22T13:04:12.991Z,7.93
2017-09-22T13:06:40.561Z,7.33
2017-09-22T13:09:08.187Z,7.23
2017-09-22T13:11:35.793Z,7.30
2017-09-22T13:14:03.350Z,6.40
2017-09-22T13:16:30.955Z,7.10
2017-09-22T13:18:58.540Z,7.67
2017-09-22T13:21:26.126Z,7.33
2017-09-22T13:23:53.718Z,8.90
2017-09-22T13:26:22.368Z,16.17
2017-09-22T13:28:49.991Z,6.97
2017-09-22T13:31:17.574Z,7.50
2017-09-22T13:33:45.153Z,8.00
2017-09-22T13:36:12.718Z,7.10
2017-09-22T13:38:41.090Z,8.00
2017-09-22T13:41:09.419Z,8.57
2017-09-22T13:43:37.917Z,8.10
2017-09-22T13:46:05.484Z,8.70
2017-09-22T13:48:33.066Z,9.40
2017-09-22T13:51:00.684Z,8.90
2017-09-22T13:53:28.250Z,9.40
2017-09-22T13:55:55.852Z,7.37
2017-09-22T13:58:24.196Z,7.50
2017-09-22T14:00:51.772Z,7.90
2017-09-22T14:03:19.342Z,8.90
2017-09-22T14:05:47.973Z,7.60
2017-09-22T14:08:15.648Z,9.20
2017-09-22T14:10:43.261Z,9.50
2017-09-22T14:13:11.617Z,9.10
2017-09-22T14:15:39.975Z,8.57
2017-09-22T14:18:07.570Z,9.07
2017-09-22T14:20:35.137Z,8.30
2017-09-22T14:23:03.752Z,9.17
2017-09-22T14:25:31.310Z,10.57
2017-09-22T14:27:59.011Z,11.47
2017-09-22T14:30:26.629Z,11.60
2017-09-22T14:32:54.203Z,9.90
2017-09-22T14:35:21.780Z,10.90
2017-09-22T14:37:49.349Z,10.27
2017-09-22T14:40:17.303Z,10.20
2017-09-22T14:42:44.874Z,10.10
2017-09-22T14:45:12.437Z,9.53
2017-09-22T14:47:40.030Z,10.70
2017-09-22T14:50:07.611Z,10.43
2017-09-22T14:52:35.194Z,11.00
2017-09-22T14:55:02.776Z,9.30
2017-09-22T14:57:30.707Z,10.60
2017-09-22T14:59:58.287Z,10.70
2017-09-22T15:02:25.963Z,9.93
2017-09-22T15:04:54.323Z,9.60
2017-09-22T15:07:21.886Z,10.00
2017-09-22T15:09:49.481Z,9.27
2017-09-22T15:12:17.814Z,8.23
2017-09-22T15:14:45.422Z,8.23
2017-09-22T15:17:13.005Z,9.33
2017-09-22T15:19:40.574Z,9.53
2017-09-22T15:22:08.143Z,9.30
2017-09-22T15:24:35.695Z,7.63
2017-09-22T15:27:03.275Z,9.37
2017-09-22T15:29:30.844Z,8.23
2017-09-22T15:31:58.429Z,7.53
2017-09-22T15:34:26.763Z,8.60
2017-09-22T15:36:54.608Z,9.50
2017-09-22T15:39:22.167Z,9.70
2017-09-22T15:41:49.829Z,9.17
2017-09-22T15:44:17.409Z,10.27
2017-09-22T15:46:44.982Z,9.27
2017-09-22T15:49:12.564Z,9.87
2017-09-22T15:51:40.881Z,9.60
2017-09-22T15:54:08.723Z,8.93
2017-09-22T15:56:36.277Z,9.43
2017-09-22T15:59:03.850Z,14.57
2017-09-22T16:01:31.423Z,10.90
2017-09-22T16:03:59.000Z,11.10
2017-09-22T16:06:26.570Z,10.17
2017-09-22T16:08:54.170Z,10.63
2017-09-22T16:11:21.745Z,9.47
2017-09-22T16:13:49.313Z,9.30
2017-09-22T16:16:17.205Z,10.17
2017-09-22T16:18:44.810Z,10.67
2017-09-22T16:21:13.162Z,9.20
2017-09-22T16:23:40.780Z,10.50
2017-09-22T16:26:08.379Z,9.10
2017-09-22T16:28:35.952Z,8.77
2017-09-22T16:31:04.276Z,9.57
2017-09-22T16:33:31.875Z,9.23
2017-09-22T16:35:59.451Z,8.43
2017-09-22T16:38:28.094Z,9.73
2017-09-22T16:40:55.736Z,8.80
2017-09-22T16:43:23.292Z,8.53
2017-09-22T16:45:50.885Z,9.30
2017-09-22T16:48:18.462Z,8.30
2017-09-22T16:50:46.812Z,8.27
2017-09-22T16:53:14.385Z,8.30
2017-09-22T16:55:42.285Z,7.70
2017-09-22T16:58:09.875Z,7.57
2017-09-22T17:00:38.212Z,7.40
2017-09-22T17:03:05.802Z,7.70
2017-09-22T17:05:33.371Z,7.70
2017-09-22T17:08:01.713Z,6.93
2017-09-22T17:10:29.272Z,6.47
2017-09-22T17:12:56.871Z,7.40
2017-09-22T17:15:25.223Z,6.37
2017-09-22T17:17:53.126Z,6.67
2017-09-22T17:20:20.699Z,6.60
2017-09-22T17:22:48.262Z,7.00
2017-09-22T17:25:15.844Z,7.50
2017-09-22T17:27:44.186Z,7.40
2017-09-22T17:30:11.771Z,6.67
2017-09-22T17:32:39.357Z,8.00
2017-09-22T17:35:07.282Z,8.00
2017-09-22T17:37:34.837Z,7.30
2017-09-22T17:40:02.405Z,7.13
2017-09-22T17:42:30.754Z,7.40
2017-09-22T17:44:58.318Z,6.90
2017-09-22T17:47:25.969Z,7.10
2017-09-22T17:49:53.627Z,6.93
2017-09-22T17:52:21.590Z,7.33
2017-09-22T17:54:49.171Z,7.40
2017-09-22T17:57:16.774Z,6.97
2017-09-22T17:59:45.144Z,8.10
2017-09-22T18:02:13.550Z,7.15
2017-09-22T18:04:41.169Z,6.93
2017-09-22T18:07:08.740Z,7.12
2017-09-22T18:09:37.385Z,6.82
2017-09-22T18:12:05.716Z,6.55
2017-09-22T18:14:33.314Z,7.60
2017-09-22T18:17:00.909Z,7.28
2017-09-22T18:19:29.355Z,8.30
2017-09-22T18:21:57.700Z,9.57
2017-09-22T18:24:25.274Z,10.07
2017-09-22T18:26:53.194Z,11.05
2017-09-22T18:29:20.840Z,10.82
2017-09-22T18:31:49.274Z,12.05
2017-09-22T18:34:16.883Z,13.32
2017-09-22T18:36:44.496Z,11.88
2017-09-22T18:39:12.097Z,12.23
2017-09-22T18:41:39.692Z,12.00
2017-09-22T18:44:07.587Z,13.55
2017-09-22T18:46:35.185Z,12.88
2017-09-22T18:49:03.050Z,13.45
2017-09-22T18:51:30.671Z,13.30
2017-09-22T18:53:58.260Z,13.38
2017-09-22T18:56:25.896Z,12.05
2017-09-22T18:58:53.496Z,11.20
2017-09-22T19:01:21.113Z,11.12
2017-09-22T19:03:48.734Z,11.60
2017-09-22T19:06:17.104Z,12.20
2017-09-22T19:08:45.472Z,10.95
2017-09-22T19:11:13.084Z,11.30
2017-09-22T19:13:40.663Z,12.35
2017-09-22T19:16:08.579Z,10.35
2017-09-22T19:18:36.935Z,12.07
2017-09-22T19:21:04.544Z,12.23
2017-09-22T19:23:32.222Z,11.90
2017-09-22T19:26:00.257Z,11.75
2017-09-22T19:28:27.858Z,12.25
2017-09-22T19:30:55.444Z,11.25
2017-09-22T19:33:23.308Z,12.10
2017-09-22T19:35:50.918Z,13.85
2017-09-22T19:38:18.578Z,12.65
2017-09-22T19:40:46.204Z,12.50
2017-09-22T19:43:13.826Z,13.23
2017-09-22T19:45:41.441Z,12.75
2017-09-22T19:48:09.795Z,12.40
2017-09-22T19:50:37.383Z,11.63
2017-09-22T19:53:05.736Z,12.68
2017-09-22T19:55:33.663Z,13.32
2017-09-22T19:58:01.292Z,13.00
2017-09-22T20:00:28.889Z,12.80
2017-09-22T20:02:57.309Z,12.75
2017-09-22T20:05:25.669Z,14.07
2017-09-22T20:07:53.277Z,12.27
2017-09-22T20:10:20.885Z,12.13
2017-09-22T20:12:48.834Z,11.48
2017-09-22T20:15:16.448Z,12.07
2017-09-22T20:17:44.094Z,12.25
2017-09-22T20:20:12.482Z,11.20
2017-09-22T20:22:41.023Z,11.80
2017-09-22T20:25:09.424Z,10.90
2017-09-22T20:27:37.015Z,12.13
2017-09-22T20:30:04.956Z,11.70
2017-09-22T20:32:33.338Z,10.20
2017-09-22T20:35:01.678Z,12.88
2017-09-22T20:37:29.272Z,14.63
2017-09-22T20:39:57.640Z,14.80
2017-09-22T20:42:25.244Z,14.15
2017-09-22T20:44:52.819Z,15.40
2017-09-22T20:47:20.684Z,12.90
2017-09-22T20:49:48.243Z,13.20
2017-09-22T20:52:15.824Z,14.20
2017-09-22T20:54:43.406Z,13.75
2017-09-22T20:57:10.995Z,13.93
2017-09-22T20:59:38.574Z,13.95
2017-09-22T21:02:06.156Z,12.93
2017-09-22T21:04:34.069Z,13.45
2017-09-22T21:07:02.410Z,13.82
2017-09-22T21:09:29.993Z,12.85
2017-09-22T21:11:58.336Z,13.52
2017-09-22T21:14:25.889Z,13.15
2017-09-22T21:16:54.990Z,14.43
2017-09-22T21:19:22.577Z,12.60
2017-09-22T21:21:50.517Z,12.57
2017-09-22T21:24:18.073Z,14.27
2017-09-22T21:26:45.665Z,14.05
2017-09-22T21:29:13.893Z,15.10
2017-09-22T21:31:41.473Z,14.85
2017-09-22T21:34:09.043Z,12.43
2017-09-22T21:36:36.597Z,13.40
2017-09-22T21:39:04.435Z,13.43
2017-09-22T21:41:32.010Z,13.75
2017-09-22T21:43:59.594Z,14.95
2017-09-22T21:46:27.175Z,15.10
2017-09-22T21:48:55.004Z,13.90
2017-09-22T21:51:22.575Z,14.80
2017-09-22T21:53:50.134Z,13.93
2017-09-22T21:56:18.179Z,12.55
2017-09-22T21:58:45.769Z,12.77
2017-09-22T22:01:13.332Z,12.95
2017-09-22T22:03:47.194Z,12.82
2017-09-22T22:06:20.381Z,12.40
2017-09-22T22:08:53.797Z,13.05
2017-09-22T22:11:21.369Z,12.77
2017-09-22T22:13:48.970Z,12.10
2017-09-22T22:16:16.537Z,12.65
2017-09-22T22:18:44.428Z,12.40
2017-09-22T22:21:12.641Z,13.45
2017-09-22T22:23:40.962Z,14.95
2017-09-22T22:26:08.541Z,16.70
2017-09-22T22:28:36.116Z,14.48
2017-09-22T22:31:03.686Z,13.25
2017-09-22T22:33:31.277Z,11.43
2017-09-22T22:35:59.118Z,11.75
2017-09-22T22:38:26.734Z,11.55
2017-09-22T22:40:54.325Z,12.02
2017-09-22T22:43:21.907Z,12.02
2017-09-22T22:45:50.234Z,11.43
2017-09-22T22:48:18.581Z,11.70
2017-09-22T22:50:46.157Z,11.77
2017-09-22T22:53:14.038Z,10.90
2017-09-22T22:55:41.608Z,12.15
2017-09-22T22:58:09.166Z,11.40
2017-09-22T23:00:36.760Z,9.95
2017-09-22T23:03:05.114Z,10.20
2017-09-22T23:05:32.706Z,10.43
2017-09-22T23:08:01.041Z,10.13
2017-09-22T23:10:28.896Z,9.95
2017-09-22T23:12:57.242Z,9.65
2017-09-22T23:15:24.814Z,9.88
2017-09-22T23:17:52.386Z,9.60
2017-09-22T23:20:19.950Z,9.52
2017-09-22T23:22:47.821Z,10.43
2017-09-22T23:25:15.380Z,8.57
2017-09-22T23:27:42.954Z,9.35
2017-09-22T23:30:10.540Z,9.68
2017-09-22T23:32:38.858Z,9.32
2017-09-22T23:35:06.728Z,9.30
2017-09-22T23:37:34.283Z,9.70
2017-09-22T23:40:01.846Z,8.20
2017-09-22T23:42:29.418Z,7.75
2017-09-22T23:44:57.007Z,9.85
2017-09-22T23:47:25.334Z,8.52
2017-09-22T23:49:52.930Z,8.35
2017-09-22T23:52:20.710Z,8.80
2017-09-22T23:54:48.338Z,8.70
2017-09-22T23:57:16.208Z,9.00
2017-09-22T23:59:43.830Z,8.75
